createdAt,value
2023-03-25T00:07:41.722Z,11.17
2023-03-25T00:08:41.624Z,11.23
2023-03-25T00:09:41.846Z,11.17
2023-03-25T00:10:41.450Z,11.23
2023-03-25T00:12:41.289Z,11.21
2023-03-25T00:26:45.725Z,11.11
2023-03-25T00:27:45.644Z,11.11
2023-03-25T00:28:45.547Z,11.10
2023-03-25T00:29:45.466Z,11.03
2023-03-25T00:30:45.440Z,10.99
2023-03-25T00:31:45.290Z,11.03
2023-03-25T00:32:45.226Z,10.98
2023-03-25T00:33:45.134Z,11.00
2023-03-25T00:34:45.047Z,11.05
2023-03-25T00:35:45.074Z,11.03
2023-03-25T00:36:44.885Z,11.05
2023-03-25T00:37:44.797Z,11.02
2023-03-25T00:38:44.719Z,11.03
2023-03-25T00:39:44.637Z,10.99
2023-03-25T00:40:44.558Z,10.93
2023-03-25T00:41:44.478Z,10.93
2023-03-25T00:42:44.410Z,10.95
2023-03-25T00:43:44.708Z,10.98
2023-03-25T00:44:44.228Z,10.95
2023-03-25T00:45:44.145Z,10.85
2023-03-25T00:46:44.083Z,10.84
2023-03-25T00:47:44.004Z,10.74
2023-03-25T00:48:43.902Z,10.85
2023-03-25T00:49:43.822Z,10.75
2023-03-25T00:50:43.735Z,10.80
2023-03-25T00:51:52.767Z,10.75
2023-03-25T00:52:43.573Z,10.63
2023-03-25T00:53:43.796Z,10.67
2023-03-25T00:54:43.409Z,10.62
2023-03-25T00:55:43.322Z,10.56
2023-03-25T00:56:43.269Z,10.66
2023-03-25T00:57:43.162Z,10.67
2023-03-25T00:58:43.101Z,10.60
2023-03-25T00:59:43.194Z,10.59
2023-03-25T01:00:42.917Z,10.56
2023-03-25T01:01:42.844Z,10.53
2023-03-25T01:02:42.810Z,10.49
2023-03-25T01:03:42.749Z,10.56
2023-03-25T01:04:43.004Z,10.55
2023-03-25T01:05:42.504Z,10.59
2023-03-25T01:06:42.422Z,10.39
2023-03-25T01:07:42.362Z,10.44
2023-03-25T01:08:42.257Z,10.46
2023-03-25T01:09:42.172Z,10.40
2023-03-25T01:10:42.093Z,10.41
2023-03-25T01:11:42.011Z,10.40
2023-03-25T01:12:41.926Z,10.41
2023-03-25T01:13:41.847Z,10.43
2023-03-25T01:14:41.790Z,10.33
2023-03-25T01:15:41.709Z,10.36
2023-03-25T01:16:41.610Z,10.26
2023-03-25T01:17:41.523Z,10.34
2023-03-25T01:18:41.436Z,10.43
2023-03-25T01:19:41.347Z,10.49
2023-03-25T01:20:41.269Z,10.46
2023-03-25T01:21:41.192Z,10.43
2023-03-25T01:22:41.112Z,10.58
2023-03-25T01:23:41.019Z,10.66
2023-03-25T01:24:40.943Z,10.46
2023-03-25T01:25:40.855Z,10.59
2023-03-25T01:26:40.777Z,10.69
2023-03-25T01:27:40.690Z,10.67
2023-03-25T01:28:40.610Z,10.77
2023-03-25T01:29:40.531Z,10.74
2023-03-25T01:30:40.489Z,10.75
2023-03-25T01:31:40.402Z,10.71
2023-03-25T01:32:40.299Z,10.71
2023-03-25T01:33:40.215Z,10.67
2023-03-25T01:34:40.122Z,10.71
2023-03-25T01:35:40.049Z,10.67
2023-03-25T01:36:39.982Z,10.65
2023-03-25T01:37:39.871Z,10.69
2023-03-25T01:38:39.802Z,10.66
2023-03-25T01:39:39.710Z,10.58
2023-03-25T01:40:39.624Z,10.59
2023-03-25T01:41:48.936Z,10.58
2023-03-25T01:42:39.459Z,10.58
2023-03-25T01:43:39.376Z,10.56
2023-03-25T01:44:39.297Z,10.56
2023-03-25T01:45:39.218Z,10.55
2023-03-25T01:46:39.183Z,10.59
2023-03-25T01:47:39.079Z,10.56
2023-03-25T01:49:22.321Z,10.56
2023-03-25T01:50:22.254Z,10.41
2023-03-25T01:51:22.158Z,10.43
2023-03-25T01:52:22.075Z,10.39
2023-03-25T01:53:21.992Z,10.43
2023-03-25T01:54:21.908Z,10.36
2023-03-25T01:55:21.829Z,10.33
2023-03-25T01:56:21.746Z,10.34
2023-03-25T01:58:19.156Z,10.18
2023-03-25T01:59:19.068Z,10.08
2023-03-25T02:00:18.991Z,10.06
2023-03-25T02:01:18.946Z,10.08
2023-03-25T02:02:18.992Z,10.01
2023-03-25T02:03:18.803Z,10.01
2023-03-25T02:04:18.661Z,10.00
2023-03-25T02:05:18.576Z,9.97
2023-03-25T02:06:18.498Z,10.00
2023-03-25T02:07:18.412Z,9.93
2023-03-25T02:08:18.332Z,10.00
2023-03-25T02:09:18.245Z,9.96
2023-03-25T02:10:18.162Z,9.93
2023-03-25T02:11:18.094Z,9.97
2023-03-25T02:12:18.001Z,10.00
2023-03-25T02:13:17.923Z,9.98
2023-03-25T02:14:17.834Z,9.96
2023-03-25T02:15:17.786Z,9.92
2023-03-25T02:16:17.773Z,10.01
2023-03-25T02:17:17.587Z,9.89
2023-03-25T02:18:17.520Z,9.92
2023-03-25T02:19:17.421Z,9.88
2023-03-25T02:20:17.341Z,9.93
2023-03-25T02:21:17.260Z,9.90
2023-03-25T02:22:17.196Z,9.83
2023-03-25T02:23:17.099Z,9.89
2023-03-25T02:24:17.010Z,9.71
2023-03-25T02:25:16.927Z,9.79
2023-03-25T02:26:16.848Z,9.71
2023-03-25T02:27:16.761Z,9.58
2023-03-25T02:28:16.679Z,9.49
2023-03-25T02:29:16.601Z,9.40
2023-03-25T02:30:16.516Z,9.28
2023-03-25T02:31:16.488Z,9.16
2023-03-25T02:32:16.365Z,9.13
2023-03-25T02:33:16.267Z,9.12
2023-03-25T02:34:16.218Z,9.00
2023-03-25T02:35:16.102Z,9.06
2023-03-25T02:36:16.025Z,9.06
2023-03-25T02:37:15.949Z,8.97
2023-03-25T02:38:15.851Z,8.97
2023-03-25T02:39:15.772Z,8.90
2023-03-25T02:40:15.736Z,8.88
2023-03-25T02:41:15.603Z,8.84
2023-03-25T02:42:15.923Z,8.88
2023-03-25T02:43:15.449Z,8.88
2023-03-25T02:44:15.357Z,8.82
2023-03-25T02:45:15.320Z,8.87
2023-03-25T02:46:15.221Z,8.90
2023-03-25T02:47:15.104Z,8.75
2023-03-25T02:48:15.027Z,8.82
2023-03-25T02:49:14.939Z,8.79
2023-03-25T02:50:14.877Z,8.87
2023-03-25T02:51:14.771Z,8.84
2023-03-25T02:52:14.692Z,8.85
2023-03-25T02:53:14.608Z,8.85
2023-03-25T02:54:14.759Z,8.90
2023-03-25T02:55:14.435Z,8.91
2023-03-25T02:56:14.390Z,8.91
2023-03-25T02:57:14.304Z,8.87
2023-03-25T02:58:15.038Z,8.79
2023-03-25T02:59:14.115Z,8.76
2023-03-25T03:00:14.020Z,8.85
2023-03-25T03:01:13.980Z,8.70
2023-03-25T03:02:13.951Z,8.69
2023-03-25T03:03:13.844Z,8.69
2023-03-25T03:04:13.691Z,8.80
2023-03-25T03:05:13.605Z,8.77
2023-03-25T03:06:13.542Z,8.79
2023-03-25T03:07:13.437Z,8.77
2023-03-25T03:08:13.354Z,8.66
2023-03-25T03:09:13.270Z,8.70
2023-03-25T03:10:13.190Z,8.70
2023-03-25T03:11:13.123Z,8.76
2023-03-25T03:12:13.022Z,8.75
2023-03-25T03:13:12.937Z,8.68
2023-03-25T03:14:13.254Z,8.70
2023-03-25T03:15:12.772Z,8.66
2023-03-25T03:16:12.726Z,8.79
2023-03-25T03:17:12.805Z,8.69
2023-03-25T03:18:12.675Z,8.76
2023-03-25T03:19:54.916Z,8.69
2023-03-25T03:20:54.836Z,8.75
2023-03-25T03:21:54.773Z,8.72
2023-03-25T03:22:54.666Z,8.66
2023-03-25T03:23:54.583Z,8.69
2023-03-25T03:24:55.108Z,8.80
2023-03-25T03:25:54.415Z,8.73
2023-03-25T03:26:54.331Z,8.65
2023-03-25T03:27:54.248Z,8.66
2023-03-25T03:28:54.168Z,8.66
2023-03-25T03:30:54.037Z,8.69
2023-03-25T03:32:06.232Z,8.68
2023-03-25T03:32:54.067Z,8.66
2023-03-25T03:33:53.749Z,8.61
2023-03-25T03:47:12.535Z,8.65
2023-03-25T03:48:12.486Z,8.68
2023-03-25T03:49:12.337Z,8.68
2023-03-25T03:50:12.259Z,8.66
2023-03-25T03:51:12.178Z,8.62
2023-03-25T03:52:12.104Z,8.66
2023-03-25T03:53:12.001Z,8.69
2023-03-25T03:54:11.918Z,8.68
2023-03-25T03:55:11.833Z,8.69
2023-03-25T03:56:11.752Z,8.60
2023-03-25T03:57:11.709Z,8.68
2023-03-25T03:58:11.583Z,8.66
2023-03-25T03:59:11.537Z,8.77
2023-03-25T04:00:11.413Z,8.70
2023-03-25T04:01:11.336Z,8.73
2023-03-25T04:02:11.302Z,8.77
2023-03-25T04:03:11.320Z,8.82
2023-03-25T04:04:11.096Z,8.80
2023-03-25T04:05:10.996Z,8.84
2023-03-25T04:06:10.914Z,8.72
2023-03-25T04:07:10.840Z,8.77
2023-03-25T04:08:10.746Z,8.66
2023-03-25T04:09:10.672Z,8.75
2023-03-25T04:10:10.577Z,8.66
2023-03-25T04:11:10.497Z,8.66
2023-03-25T04:12:10.408Z,8.69
2023-03-25T04:13:10.328Z,8.80
2023-03-25T04:14:10.273Z,8.82
2023-03-25T04:15:10.157Z,8.80
2023-03-25T04:16:10.259Z,8.84
2023-03-25T04:17:09.998Z,8.85
2023-03-25T04:18:09.913Z,8.85
2023-03-25T04:19:09.851Z,8.80
2023-03-25T04:20:09.740Z,8.84
2023-03-25T04:21:09.658Z,8.80
2023-03-25T04:22:09.577Z,8.79
2023-03-25T04:23:09.491Z,8.87
2023-03-25T04:24:09.406Z,8.85
2023-03-25T04:25:09.372Z,8.90
2023-03-25T04:26:09.238Z,8.90
2023-03-25T04:27:09.159Z,8.90
2023-03-25T04:28:09.076Z,8.85
2023-03-25T04:29:08.990Z,8.87
2023-03-25T04:30:08.905Z,8.90
2023-03-25T04:31:08.898Z,8.90
2023-03-25T04:32:08.838Z,8.95
2023-03-25T04:33:08.863Z,8.87
2023-03-25T04:34:08.570Z,8.91
2023-03-25T04:35:08.512Z,8.87
2023-03-25T04:36:08.450Z,8.76
2023-03-25T04:37:08.319Z,8.79
2023-03-25T04:38:08.240Z,8.66
2023-03-25T04:39:08.157Z,8.82
2023-03-25T04:40:08.078Z,8.82
2023-03-25T04:41:08.024Z,8.82
2023-03-25T04:42:07.904Z,8.85
2023-03-25T04:43:07.818Z,8.84
2023-03-25T04:44:07.780Z,8.84
2023-03-25T04:45:07.670Z,8.88
2023-03-25T04:46:07.620Z,8.93
2023-03-25T04:47:07.486Z,8.90
2023-03-25T04:48:07.399Z,8.88
2023-03-25T04:49:07.320Z,8.88
2023-03-25T04:50:07.233Z,8.90
2023-03-25T04:51:07.169Z,8.85
2023-03-25T04:52:07.069Z,8.87
2023-03-25T04:53:06.987Z,8.88
2023-03-25T04:54:06.900Z,8.85
2023-03-25T04:55:07.171Z,8.80
2023-03-25T04:56:06.729Z,8.95
2023-03-25T04:57:06.669Z,8.88
2023-03-25T04:58:06.569Z,9.00
2023-03-25T04:59:06.515Z,8.84
2023-03-25T05:00:06.644Z,8.87
2023-03-25T05:01:06.522Z,8.87
2023-03-25T05:02:06.234Z,8.87
2023-03-25T05:03:06.176Z,8.95
2023-03-25T05:04:06.332Z,9.00
2023-03-25T05:05:05.980Z,8.93
2023-03-25T05:10:14.689Z,8.94
2023-03-25T05:11:14.587Z,8.97
2023-03-25T05:12:14.500Z,9.05
2023-03-25T05:13:14.413Z,8.94
2023-03-25T05:14:14.531Z,9.00
2023-03-25T05:15:14.300Z,8.97
2023-03-25T05:16:14.209Z,9.00
2023-03-25T05:17:14.086Z,9.03
2023-03-25T05:18:14.027Z,9.03
2023-03-25T05:19:13.908Z,8.98
2023-03-25T05:20:14.032Z,8.94
2023-03-25T05:21:13.752Z,8.94
2023-03-25T05:22:13.660Z,8.94
2023-03-25T05:23:13.577Z,8.98
2023-03-25T05:24:13.604Z,9.05
2023-03-25T05:25:13.428Z,8.98
2023-03-25T05:26:13.346Z,8.95
2023-03-25T05:27:13.249Z,9.00
2023-03-25T05:28:13.159Z,9.05
2023-03-25T05:29:13.073Z,9.06
2023-03-25T05:30:13.094Z,8.95
2023-03-25T05:31:12.907Z,9.00
2023-03-25T05:32:12.825Z,9.03
2023-03-25T05:33:13.192Z,9.05
2023-03-25T05:34:12.666Z,9.06
2023-03-25T05:35:12.585Z,9.05
2023-03-25T05:36:12.493Z,9.10
2023-03-25T05:37:12.409Z,9.00
2023-03-25T05:38:12.363Z,9.05
2023-03-25T05:39:12.258Z,9.14
2023-03-25T05:40:15.100Z,9.10
2023-03-25T05:41:12.078Z,9.05
2023-03-25T05:42:12.559Z,9.02
2023-03-25T05:43:11.909Z,9.05
2023-03-25T05:55:29.870Z,8.91
2023-03-25T05:56:29.898Z,8.95
2023-03-25T05:57:29.723Z,8.94
2023-03-25T05:58:29.628Z,8.95
2023-03-25T05:59:29.536Z,8.93
2023-03-25T06:00:29.454Z,9.00
2023-03-25T06:01:33.231Z,9.00
2023-03-25T06:02:29.359Z,8.97
2023-03-25T06:03:29.302Z,8.97
2023-03-25T06:04:29.123Z,8.88
2023-03-25T06:05:29.048Z,9.02
2023-03-25T06:06:28.956Z,8.95
2023-03-25T06:07:28.877Z,8.95
2023-03-25T06:08:28.792Z,8.94
2023-03-25T06:09:28.704Z,9.03
2023-03-25T06:10:28.668Z,8.82
2023-03-25T06:11:28.540Z,8.93
2023-03-25T06:12:28.453Z,8.93
2023-03-25T06:13:28.815Z,8.93
2023-03-25T06:14:28.291Z,8.90
2023-03-25T06:15:28.204Z,8.90
2023-03-25T06:16:28.156Z,8.88
2023-03-25T06:17:28.070Z,8.93
2023-03-25T06:18:28.203Z,8.94
2023-03-25T06:19:27.870Z,8.97
2023-03-25T06:20:27.891Z,8.93
2023-03-25T06:21:27.729Z,8.80
2023-03-25T06:22:27.621Z,8.97
2023-03-25T06:23:27.540Z,8.97
2023-03-25T06:24:27.459Z,9.06
2023-03-25T06:25:27.373Z,9.03
2023-03-25T06:26:27.290Z,9.06
2023-03-25T06:27:27.208Z,9.13
2023-03-25T06:28:27.323Z,9.14
2023-03-25T06:29:27.065Z,9.19
2023-03-25T06:46:47.792Z,9.14
2023-03-25T06:47:47.714Z,9.10
2023-03-25T06:48:47.599Z,9.10
2023-03-25T06:50:34.999Z,9.05
2023-03-25T06:51:34.912Z,9.14
2023-03-25T06:52:34.832Z,9.13
2023-03-25T06:53:34.770Z,9.06
2023-03-25T06:54:34.672Z,9.25
2023-03-25T06:55:34.641Z,9.24
2023-03-25T06:56:34.524Z,9.27
2023-03-25T06:57:34.422Z,9.24
2023-03-25T06:58:34.330Z,9.27
2023-03-25T06:59:34.267Z,9.25
2023-03-25T07:00:34.184Z,9.29
2023-03-25T07:01:34.089Z,9.28
2023-03-25T07:02:34.045Z,9.25
2023-03-25T07:03:33.929Z,9.32
2023-03-25T07:04:33.834Z,9.24
2023-03-25T07:05:33.920Z,9.20
2023-03-25T07:06:33.684Z,9.31
2023-03-25T07:07:33.591Z,9.20
2023-03-25T07:08:33.513Z,9.20
2023-03-25T07:09:33.422Z,9.27
2023-03-25T07:10:33.340Z,9.24
2023-03-25T07:11:33.311Z,9.24
2023-03-25T07:12:33.271Z,9.25
2023-03-25T07:13:33.091Z,9.27
2023-03-25T07:14:33.009Z,9.24
2023-03-25T07:15:32.924Z,9.28
2023-03-25T07:16:32.887Z,9.24
2023-03-25T07:17:32.803Z,9.24
2023-03-25T07:18:32.697Z,9.24
2023-03-25T07:19:32.593Z,9.24
2023-03-25T07:20:32.524Z,9.32
2023-03-25T07:21:32.426Z,9.25
2023-03-25T07:22:32.347Z,9.24
2023-03-25T07:23:32.260Z,9.31
2023-03-25T07:24:32.181Z,9.28
2023-03-25T07:25:32.104Z,9.20
2023-03-25T07:26:32.026Z,9.25
2023-03-25T07:27:31.944Z,9.19
2023-03-25T07:28:31.847Z,9.16
2023-03-25T07:29:31.763Z,9.28
2023-03-25T07:30:31.684Z,9.28
2023-03-25T07:31:31.626Z,9.34
2023-03-25T07:32:31.550Z,9.35
2023-03-25T07:33:31.479Z,9.42
2023-03-25T07:34:31.458Z,9.42
2023-03-25T07:35:31.357Z,9.47
2023-03-25T07:36:31.196Z,9.43
2023-03-25T07:37:31.134Z,9.61
2023-03-25T07:38:31.032Z,9.56
2023-03-25T07:39:30.936Z,9.58
2023-03-25T07:40:30.901Z,9.58
2023-03-25T07:41:30.768Z,9.55
2023-03-25T07:42:30.693Z,9.63
2023-03-25T07:43:30.604Z,9.58
2023-03-25T07:44:30.520Z,9.55
2023-03-25T07:45:30.458Z,9.61
2023-03-25T07:46:30.407Z,9.75
2023-03-25T07:47:30.292Z,9.75
2023-03-25T07:48:30.192Z,9.70
2023-03-25T07:49:30.129Z,9.83
2023-03-25T07:50:30.048Z,9.83
2023-03-25T07:51:29.944Z,9.90
2023-03-25T07:52:29.862Z,9.92
2023-03-25T07:53:29.783Z,9.90
2023-03-25T07:54:29.695Z,10.00
2023-03-25T07:55:29.620Z,10.03
2023-03-25T07:56:29.553Z,10.15
2023-03-25T07:57:29.602Z,10.21
2023-03-25T07:58:29.382Z,10.13
2023-03-25T07:59:29.572Z,10.21
2023-03-25T08:00:29.248Z,10.21
2023-03-25T08:01:29.121Z,10.25
2023-03-25T08:02:29.253Z,10.16
2023-03-25T08:03:29.013Z,10.15
2023-03-25T08:04:28.881Z,10.18
2023-03-25T08:05:28.791Z,10.16
2023-03-25T08:06:28.731Z,10.13
2023-03-25T08:07:28.647Z,10.15
2023-03-25T08:08:28.550Z,10.19
2023-03-25T08:09:28.461Z,10.26
2023-03-25T08:10:28.409Z,10.33
2023-03-25T08:11:28.296Z,10.31
2023-03-25T08:12:28.213Z,10.31
2023-03-25T08:13:28.131Z,10.41
2023-03-25T08:14:28.047Z,10.43
2023-03-25T08:15:28.165Z,10.56
2023-03-25T08:16:27.932Z,10.69
2023-03-25T08:17:27.822Z,10.67
2023-03-25T08:18:27.719Z,10.63
2023-03-25T08:19:27.637Z,10.75
2023-03-25T08:20:27.634Z,10.84
2023-03-25T08:21:27.506Z,10.80
2023-03-25T08:22:30.438Z,10.92
2023-03-25T08:23:27.308Z,10.99
2023-03-25T08:24:27.224Z,11.00
2023-03-25T08:25:27.144Z,10.88
2023-03-25T08:26:27.075Z,10.85
2023-03-25T08:27:26.980Z,10.87
2023-03-25T08:28:26.911Z,10.88
2023-03-25T08:29:26.824Z,10.92
2023-03-25T08:30:26.739Z,10.99
2023-03-25T08:31:26.694Z,10.91
2023-03-25T08:32:26.628Z,10.98
2023-03-25T08:33:26.493Z,10.95
2023-03-25T08:34:28.938Z,10.81
2023-03-25T08:35:26.343Z,10.88
2023-03-25T08:36:26.248Z,10.95
2023-03-25T08:37:26.179Z,10.85
2023-03-25T08:38:26.106Z,10.88
2023-03-25T08:39:26.005Z,10.99
2023-03-25T08:40:25.930Z,10.96
2023-03-25T08:41:25.841Z,10.96
2023-03-25T08:42:25.764Z,10.95
2023-03-25T08:43:25.680Z,10.99
2023-03-25T08:44:25.598Z,10.96
2023-03-25T08:45:25.532Z,11.00
2023-03-25T08:46:25.463Z,11.00
2023-03-25T08:47:25.375Z,10.99
2023-03-25T08:48:25.276Z,10.95
2023-03-25T08:49:25.196Z,10.95
2023-03-25T08:50:25.117Z,10.85
2023-03-25T08:51:25.033Z,10.78
2023-03-25T08:52:24.967Z,11.05
2023-03-25T08:53:25.024Z,11.02
2023-03-25T08:54:24.822Z,10.93
2023-03-25T08:55:24.959Z,11.00
2023-03-25T08:56:24.633Z,10.98
2023-03-25T08:57:24.544Z,10.99
2023-03-25T08:58:24.466Z,11.03
2023-03-25T08:59:24.385Z,11.14
2023-03-25T09:00:24.454Z,11.24
2023-03-25T09:01:24.301Z,11.29
2023-03-25T09:02:24.252Z,11.35
2023-03-25T09:03:24.061Z,11.14
2023-03-25T09:04:23.983Z,11.03
2023-03-25T09:05:24.268Z,11.11
2023-03-25T09:06:23.819Z,11.21
2023-03-25T09:07:23.740Z,11.38
2023-03-25T09:08:23.676Z,11.43
2023-03-25T09:09:23.629Z,11.36
2023-03-25T09:10:23.534Z,11.20
2023-03-25T09:11:34.068Z,11.20
2023-03-25T09:12:23.634Z,11.20
2023-03-25T09:13:23.256Z,11.24
2023-03-25T09:14:23.179Z,11.26
2023-03-25T09:15:23.472Z,11.32
2023-03-25T09:16:23.263Z,11.34
2023-03-25T09:17:23.035Z,11.50
2023-03-25T09:18:22.862Z,11.65
2023-03-25T09:19:25.391Z,11.65
2023-03-25T09:20:22.692Z,11.75
2023-03-25T09:21:22.605Z,11.81
2023-03-25T09:22:22.543Z,11.79
2023-03-25T09:23:22.447Z,11.71
2023-03-25T09:24:22.365Z,11.68
2023-03-25T09:25:22.286Z,11.67
2023-03-25T09:26:22.227Z,11.51
2023-03-25T09:27:22.125Z,11.53
2023-03-25T09:29:21.970Z,11.28
2023-03-25T09:30:21.887Z,11.26
2023-03-25T09:31:21.816Z,11.00
2023-03-25T09:32:21.728Z,11.02
2023-03-25T09:33:21.658Z,10.93
2023-03-25T09:34:21.867Z,10.92
2023-03-25T09:35:21.524Z,10.99
2023-03-25T09:36:21.422Z,10.95
2023-03-25T09:37:21.326Z,11.10
2023-03-25T09:38:21.244Z,11.14
2023-03-25T09:39:21.173Z,11.21
2023-03-25T09:40:21.082Z,11.24
2023-03-25T09:41:21.004Z,11.32
2023-03-25T09:42:20.947Z,11.26
2023-03-25T09:43:20.844Z,11.34
2023-03-25T09:44:20.768Z,11.35
2023-03-25T09:45:20.984Z,11.59
2023-03-25T09:46:20.629Z,11.65
2023-03-25T09:47:20.527Z,11.61
2023-03-25T09:48:20.445Z,11.54
2023-03-25T09:49:20.359Z,11.47
2023-03-25T09:50:20.278Z,11.42
2023-03-25T09:51:20.201Z,11.36
2023-03-25T09:52:20.123Z,11.29
2023-03-25T09:53:20.045Z,11.17
2023-03-25T09:54:19.959Z,11.03
2023-03-25T09:55:19.884Z,11.02
2023-03-25T09:56:19.800Z,10.93
2023-03-25T09:57:19.746Z,10.80
2023-03-25T09:58:19.656Z,10.78
2023-03-25T09:59:19.762Z,10.77
2023-03-25T10:00:19.483Z,10.66
2023-03-25T10:01:19.436Z,10.59
2023-03-25T10:02:19.408Z,10.59
2023-03-25T10:03:19.325Z,10.66
2023-03-25T10:04:19.159Z,10.75
2023-03-25T10:05:19.082Z,10.66
2023-03-25T10:06:19.002Z,10.88
2023-03-25T10:07:18.917Z,10.85
2023-03-25T10:08:18.835Z,10.95
2023-03-25T10:09:18.757Z,10.93
2023-03-25T10:10:18.675Z,11.14
2023-03-25T10:11:18.599Z,11.06
2023-03-25T10:12:18.515Z,11.03
2023-03-25T10:13:20.031Z,11.10
2023-03-25T10:14:18.379Z,11.18
2023-03-25T10:15:18.277Z,11.20
2023-03-25T10:16:18.546Z,11.05
2023-03-25T10:17:18.127Z,11.02
2023-03-25T10:18:18.032Z,11.16
2023-03-25T10:19:17.957Z,11.14
2023-03-25T10:20:17.873Z,10.93
2023-03-25T10:21:17.795Z,10.92
2023-03-25T10:22:18.081Z,10.91
2023-03-25T10:23:17.632Z,10.84
2023-03-25T10:24:17.549Z,10.84
2023-03-25T10:25:17.471Z,10.60
2023-03-25T10:26:17.390Z,10.55
2023-03-25T10:27:17.311Z,10.49
2023-03-25T10:28:17.228Z,10.55
2023-03-25T10:29:17.149Z,10.44
2023-03-25T10:30:17.083Z,10.55
2023-03-25T10:31:17.063Z,10.73
2023-03-25T10:32:16.912Z,10.71
2023-03-25T10:33:16.825Z,10.98
2023-03-25T10:34:16.746Z,11.14
2023-03-25T10:35:16.838Z,11.46
2023-03-25T10:36:16.589Z,11.51
2023-03-25T10:37:16.505Z,11.57
2023-03-25T10:38:16.423Z,11.69
2023-03-25T10:39:16.357Z,11.78
2023-03-25T10:40:16.285Z,11.90
2023-03-25T10:41:16.195Z,11.98
2023-03-25T10:42:16.141Z,12.19
2023-03-25T10:43:16.029Z,12.30
2023-03-25T10:44:15.948Z,12.26
2023-03-25T10:45:15.885Z,11.90
2023-03-25T10:46:15.820Z,11.95
2023-03-25T10:47:15.860Z,11.81
2023-03-25T10:48:15.631Z,11.71
2023-03-25T10:49:15.551Z,11.32
2023-03-25T10:50:15.480Z,11.14
2023-03-25T10:51:15.445Z,11.13
2023-03-25T10:52:15.315Z,11.00
2023-03-25T10:53:15.233Z,11.00
2023-03-25T10:54:15.154Z,11.10
2023-03-25T10:55:15.076Z,10.93
2023-03-25T10:56:14.997Z,11.02
2023-03-25T10:57:14.914Z,11.03
2023-03-25T10:58:14.933Z,11.21
2023-03-25T10:59:14.763Z,11.32
2023-03-25T11:00:14.687Z,11.38
2023-03-25T11:01:14.675Z,11.32
2023-03-25T11:02:14.572Z,11.57
2023-03-25T11:03:14.524Z,11.61
2023-03-25T11:04:14.351Z,11.67
2023-03-25T11:05:14.282Z,11.76
2023-03-25T11:06:14.193Z,11.87
2023-03-25T11:07:14.112Z,12.34
2023-03-25T11:08:24.081Z,12.74
2023-03-25T11:09:14.250Z,13.32
2023-03-25T11:10:13.880Z,13.62
2023-03-25T11:11:13.794Z,13.71
2023-03-25T11:12:13.717Z,14.02
2023-03-25T11:13:13.632Z,14.27
2023-03-25T11:14:13.725Z,14.35
2023-03-25T11:15:13.480Z,14.61
2023-03-25T11:37:33.757Z,9.97
2023-03-25T11:38:33.646Z,10.15
2023-03-25T11:39:33.599Z,10.33
2023-03-25T11:40:33.516Z,10.43
2023-03-25T11:41:33.903Z,10.69
2023-03-25T11:42:33.752Z,11.18
2023-03-25T11:43:33.243Z,11.60
2023-03-25T11:44:33.174Z,11.78
2023-03-25T11:45:35.452Z,12.26
2023-03-25T11:46:33.011Z,12.59
2023-03-25T11:47:32.937Z,13.14
2023-03-25T11:48:32.839Z,13.77
2023-03-25T11:49:32.758Z,13.55
2023-03-25T11:50:32.687Z,13.74
2023-03-25T11:52:15.094Z,13.99
2023-03-25T11:53:15.039Z,14.32
2023-03-25T11:54:14.935Z,15.01
2023-03-25T11:55:14.859Z,14.72
2023-03-25T11:56:14.790Z,14.83
2023-03-25T11:57:14.718Z,14.72
2023-03-25T11:58:14.635Z,14.78
2023-03-25T11:59:14.597Z,15.16
2023-03-25T12:00:14.489Z,15.99
2023-03-25T12:01:14.414Z,16.10
2023-03-25T12:03:14.408Z,16.95
2023-03-25T12:04:14.203Z,16.88
2023-03-25T12:05:14.134Z,17.05
2023-03-25T12:06:14.082Z,17.08
2023-03-25T12:07:13.986Z,17.23
2023-03-25T12:08:14.366Z,16.77
2023-03-25T12:09:13.867Z,17.32
2023-03-25T12:11:01.273Z,16.93
2023-03-25T12:12:01.197Z,17.48
2023-03-25T12:13:01.132Z,16.20
2023-03-25T12:14:01.058Z,16.15
2023-03-25T12:15:01.000Z,15.94
2023-03-25T12:16:00.977Z,16.10
2023-03-25T12:17:00.858Z,16.18
2023-03-25T12:18:00.804Z,15.68
2023-03-25T12:19:00.710Z,15.01
2023-03-25T12:20:00.640Z,15.51
2023-03-25T12:21:01.021Z,16.06
2023-03-25T12:22:00.498Z,16.35
2023-03-25T12:23:00.435Z,17.00
2023-03-25T12:24:00.359Z,16.89
2023-03-25T12:25:00.562Z,17.20
2023-03-25T12:26:00.220Z,17.07
2023-03-25T12:27:00.151Z,17.30
2023-03-25T12:28:00.107Z,16.30
2023-03-25T12:29:00.012Z,15.28
2023-03-25T12:29:59.940Z,15.91
2023-03-25T12:30:59.918Z,15.79
2023-03-25T12:31:59.801Z,15.88
2023-03-25T12:32:59.780Z,16.34
2023-03-25T12:33:59.657Z,16.18
2023-03-25T12:34:59.592Z,16.74
2023-03-25T12:35:59.577Z,16.66
2023-03-25T12:36:59.548Z,16.93
2023-03-25T12:37:59.779Z,17.66
2023-03-25T12:38:59.310Z,17.84
2023-03-25T12:39:59.978Z,18.34
2023-03-25T12:40:59.343Z,18.68
2023-03-25T12:41:59.096Z,19.13
2023-03-25T12:42:59.075Z,19.58
2023-03-25T12:43:58.968Z,19.40
2023-03-25T12:44:58.891Z,18.94
2023-03-25T12:45:58.885Z,18.79
2023-03-25T12:46:58.756Z,19.06
2023-03-25T12:47:58.708Z,18.52
2023-03-25T12:48:58.626Z,18.21
2023-03-25T12:49:58.548Z,18.82
2023-03-25T12:50:58.488Z,18.52
2023-03-25T12:51:58.664Z,18.04
2023-03-25T12:52:58.346Z,18.14
2023-03-25T12:53:58.293Z,17.50
2023-03-25T12:54:58.209Z,17.66
2023-03-25T12:55:58.142Z,18.02
2023-03-25T12:56:58.116Z,18.53
2023-03-25T12:57:58.015Z,18.61
2023-03-25T12:58:57.944Z,18.22
2023-03-25T12:59:57.903Z,18.43
2023-03-25T13:00:57.896Z,18.57
2023-03-25T13:01:57.774Z,17.55
2023-03-25T13:02:57.745Z,17.71
2023-03-25T13:03:57.619Z,17.95
2023-03-25T13:04:57.546Z,17.87
2023-03-25T13:05:57.468Z,17.88
2023-03-25T13:06:57.500Z,17.77
2023-03-25T13:07:57.333Z,17.88
2023-03-25T13:08:57.276Z,18.19
2023-03-25T13:09:57.198Z,18.24
2023-03-25T13:10:57.158Z,18.07
2023-03-25T13:11:57.063Z,17.85
2023-03-25T13:12:57.021Z,18.11
2023-03-25T13:13:56.937Z,18.10
2023-03-25T13:14:56.868Z,17.28
2023-03-25T13:15:56.789Z,16.41
2023-03-25T13:16:56.723Z,15.66
2023-03-25T13:17:56.688Z,15.21
2023-03-25T13:18:56.591Z,14.87
2023-03-25T13:19:56.515Z,14.74
2023-03-25T13:20:56.445Z,14.52
2023-03-25T13:21:56.529Z,14.09
2023-03-25T13:22:56.345Z,14.03
2023-03-25T13:24:56.197Z,13.87
2023-03-25T13:25:56.271Z,13.71
2023-03-25T13:26:56.015Z,13.59
2023-03-25T13:30:21.861Z,13.61
2023-03-25T13:31:21.589Z,13.62
2023-03-25T13:32:21.686Z,13.58
2023-03-25T13:33:21.612Z,13.43
2023-03-25T13:34:21.294Z,13.44
2023-03-25T13:35:21.330Z,13.38
2023-03-25T13:36:22.281Z,13.40
2023-03-25T13:37:24.739Z,13.14
2023-03-25T13:38:20.993Z,13.43
2023-03-25T13:39:20.915Z,13.38
2023-03-25T13:40:20.836Z,13.44
2023-03-25T13:41:20.758Z,13.38
2023-03-25T13:42:20.689Z,13.45
2023-03-25T13:43:20.605Z,13.68
2023-03-25T13:44:20.530Z,13.73
2023-03-25T13:45:20.452Z,13.84
2023-03-25T13:46:20.479Z,14.38
2023-03-25T13:47:20.301Z,14.29
2023-03-25T13:48:20.525Z,14.41
2023-03-25T13:49:20.385Z,15.43
2023-03-25T13:50:20.077Z,15.89
2023-03-25T13:51:19.991Z,16.34
2023-03-25T13:52:19.936Z,16.73
2023-03-25T13:53:19.846Z,16.41
2023-03-25T13:54:21.821Z,15.97
2023-03-25T13:55:19.694Z,15.63
2023-03-25T13:56:19.622Z,15.16
2023-03-25T13:57:19.545Z,15.09
2023-03-25T13:58:19.478Z,14.90
2023-03-25T13:59:19.608Z,14.80
2023-03-25T14:00:21.751Z,14.72
2023-03-25T14:01:19.280Z,14.47
2023-03-25T14:02:19.190Z,14.23
2023-03-25T14:03:19.353Z,14.14
2023-03-25T14:04:19.276Z,14.17
2023-03-25T14:05:19.042Z,14.21
2023-03-25T14:06:19.102Z,14.19
2023-03-25T14:07:18.828Z,13.99
2023-03-25T14:08:20.828Z,13.89
2023-03-25T14:09:21.870Z,13.84
2023-03-25T14:10:18.803Z,14.32
2023-03-25T14:11:18.490Z,15.31
2023-03-25T14:12:18.431Z,16.12
2023-03-25T14:13:18.439Z,16.85
2023-03-25T14:14:18.270Z,16.90
2023-03-25T14:15:18.397Z,16.95
2023-03-25T14:16:18.171Z,17.20
2023-03-25T14:17:18.073Z,17.48
2023-03-25T14:18:18.009Z,16.85
2023-03-25T14:19:18.185Z,16.33
2023-03-25T14:21:18.468Z,16.62
2023-03-25T14:25:17.466Z,17.44
2023-03-25T14:26:17.378Z,17.25
2023-03-25T14:27:17.309Z,16.33
2023-03-25T14:28:17.290Z,16.50
2023-03-25T14:29:17.197Z,16.29
2023-03-25T14:30:17.138Z,16.33
2023-03-25T14:34:48.008Z,17.71
2023-03-25T14:36:45.427Z,17.35
2023-03-25T14:37:45.322Z,17.38
2023-03-25T14:38:45.633Z,17.69
2023-03-25T14:42:10.834Z,17.98
2023-03-25T14:43:10.761Z,17.71
2023-03-25T14:44:10.708Z,17.57
2023-03-25T14:45:10.639Z,17.18
2023-03-25T14:46:10.620Z,16.30
2023-03-25T14:47:10.515Z,15.85
2023-03-25T14:48:23.051Z,15.45
2023-03-25T14:49:10.341Z,15.39
2023-03-25T14:50:10.296Z,15.06